sensor_id;sensor_type;location;lat;lon;timestamp;P1;durP1;ratioP1;P2;durP2;ratioP2
72301;SDS011;60235;52.234;5.186;2022-09-20T00:01:53;5.40;;;1.10;;
72301;SDS011;60235;52.234;5.186;2022-09-20T00:04:19;6.43;;;1.23;;
72301;SDS011;60235;52.234;5.186;2022-09-20T00:06:45;4.40;;;1.15;;
72301;SDS011;60235;52.234;5.186;2022-09-20T00:09:11;8.23;;;1.20;;
72301;SDS011;60235;52.234;5.186;2022-09-20T00:11:37;10.20;;;1.48;;
72301;SDS011;60235;52.234;5.186;2022-09-20T00:14:03;7.22;;;1.30;;
72301;SDS011;60235;52.234;5.186;2022-09-20T00:16:33;6.75;;;1.25;;
72301;SDS011;60235;52.234;5.186;2022-09-20T00:19:00;7.75;;;1.20;;
72301;SDS011;60235;52.234;5.186;2022-09-20T00:21:28;5.93;;;1.10;;
72301;SDS011;60235;52.234;5.186;2022-09-20T00:23:55;8.57;;;1.20;;
72301;SDS011;60235;52.234;5.186;2022-09-20T00:26:24;5.28;;;1.23;;
72301;SDS011;60235;52.234;5.186;2022-09-20T00:28:50;7.35;;;1.20;;
72301;SDS011;60235;52.234;5.186;2022-09-20T00:31:16;8.90;;;1.20;;
72301;SDS011;60235;52.234;5.186;2022-09-20T00:33:43;10.93;;;1.67;;
72301;SDS011;60235;52.234;5.186;2022-09-20T00:36:28;8.50;;;1.10;;
72301;SDS011;60235;52.234;5.186;2022-09-20T00:38:57;7.18;;;1.23;;
72301;SDS011;60235;52.234;5.186;2022-09-20T00:41:24;9.13;;;1.48;;
72301;SDS011;60235;52.234;5.186;2022-09-20T00:43:50;7.43;;;1.50;;
72301;SDS011;60235;52.234;5.186;2022-09-20T00:48:45;9.27;;;1.30;;
72301;SDS011;60235;52.234;5.186;2022-09-20T00:51:13;7.50;;;1.35;;
72301;SDS011;60235;52.234;5.186;2022-09-20T00:53:43;7.75;;;1.55;;
72301;SDS011;60235;52.234;5.186;2022-09-20T00:56:13;7.25;;;1.33;;
72301;SDS011;60235;52.234;5.186;2022-09-20T01:01:06;7.78;;;1.30;;
72301;SDS011;60235;52.234;5.186;2022-09-20T01:03:33;9.55;;;1.35;;
72301;SDS011;60235;52.234;5.186;2022-09-20T01:06:00;9.25;;;1.20;;
72301;SDS011;60235;52.234;5.186;2022-09-20T01:08:28;8.82;;;1.92;;
72301;SDS011;60235;52.234;5.186;2022-09-20T01:10:54;6.57;;;1.40;;
72301;SDS011;60235;52.234;5.186;2022-09-20T01:13:20;9.27;;;1.63;;
72301;SDS011;60235;52.234;5.186;2022-09-20T01:15:46;10.77;;;1.30;;
72301;SDS011;60235;52.234;5.186;2022-09-20T01:18:13;6.45;;;1.17;;
72301;SDS011;60235;52.234;5.186;2022-09-20T01:20:40;6.78;;;1.20;;
72301;SDS011;60235;52.234;5.186;2022-09-20T01:23:12;10.85;;;1.33;;
72301;SDS011;60235;52.234;5.186;2022-09-20T01:25:45;9.93;;;1.60;;
72301;SDS011;60235;52.234;5.186;2022-09-20T01:28:15;5.68;;;1.23;;
72301;SDS011;60235;52.234;5.186;2022-09-20T01:30:50;9.93;;;1.35;;
72301;SDS011;60235;52.234;5.186;2022-09-20T01:34:02;6.22;;;1.17;;
72301;SDS011;60235;52.234;5.186;2022-09-20T01:36:08;3.53;;;0.95;;
72301;SDS011;60235;52.234;5.186;2022-09-20T01:43:44;13.70;;;1.70;;
72301;SDS011;60235;52.234;5.186;2022-09-20T01:46:21;5.85;;;1.17;;
72301;SDS011;60235;52.234;5.186;2022-09-20T01:48:49;5.90;;;1.65;;
72301;SDS011;60235;52.234;5.186;2022-09-20T01:51:30;4.53;;;1.10;;
72301;SDS011;60235;52.234;5.186;2022-09-20T02:06:33;8.93;;;1.30;;
72301;SDS011;60235;52.234;5.186;2022-09-20T02:14:03;7.50;;;1.88;;
72301;SDS011;60235;52.234;5.186;2022-09-20T02:16:42;5.97;;;1.38;;
72301;SDS011;60235;52.234;5.186;2022-09-20T02:24:41;9.80;;;1.70;;
72301;SDS011;60235;52.234;5.186;2022-09-20T02:27:26;8.95;;;1.80;;
72301;SDS011;60235;52.234;5.186;2022-09-20T02:35:38;7.55;;;1.63;;
72301;SDS011;60235;52.234;5.186;2022-09-20T02:40:58;4.97;;;1.38;;
72301;SDS011;60235;52.234;5.186;2022-09-20T02:46:29;7.10;;;1.58;;
72301;SDS011;60235;52.234;5.186;2022-09-20T02:49:04;9.95;;;1.98;;
72301;SDS011;60235;52.234;5.186;2022-09-20T02:51:39;5.45;;;1.30;;
72301;SDS011;60235;52.234;5.186;2022-09-20T02:57:11;8.10;;;1.58;;
72301;SDS011;60235;52.234;5.186;2022-09-20T02:59:41;6.80;;;1.58;;
72301;SDS011;60235;52.234;5.186;2022-09-20T03:02:21;8.90;;;1.67;;
72301;SDS011;60235;52.234;5.186;2022-09-20T03:05:04;7.03;;;1.58;;
72301;SDS011;60235;52.234;5.186;2022-09-20T03:13:10;8.15;;;1.55;;
72301;SDS011;60235;52.234;5.186;2022-09-20T03:15:51;5.85;;;1.40;;
72301;SDS011;60235;52.234;5.186;2022-09-20T03:36:02;6.68;;;1.52;;
72301;SDS011;60235;52.234;5.186;2022-09-20T03:43:40;9.40;;;2.25;;
72301;SDS011;60235;52.234;5.186;2022-09-20T03:46:17;5.85;;;1.80;;
72301;SDS011;60235;52.234;5.186;2022-09-20T03:59:20;7.50;;;1.33;;
72301;SDS011;60235;52.234;5.186;2022-09-20T04:09:39;6.68;;;1.50;;
72301;SDS011;60235;52.234;5.186;2022-09-20T04:12:19;7.35;;;1.40;;
72301;SDS011;60235;52.234;5.186;2022-09-20T04:20:21;5.00;;;1.58;;
72301;SDS011;60235;52.234;5.186;2022-09-20T04:22:49;10.77;;;2.03;;
72301;SDS011;60235;52.234;5.186;2022-09-20T04:25:17;6.28;;;1.65;;
72301;SDS011;60235;52.234;5.186;2022-09-20T04:30:21;9.40;;;1.92;;
72301;SDS011;60235;52.234;5.186;2022-09-20T04:38:18;6.65;;;1.52;;
72301;SDS011;60235;52.234;5.186;2022-09-20T04:58:37;6.32;;;1.35;;
72301;SDS011;60235;52.234;5.186;2022-09-20T05:03:45;9.85;;;2.40;;
72301;SDS011;60235;52.234;5.186;2022-09-20T05:21:44;9.65;;;2.28;;
72301;SDS011;60235;52.234;5.186;2022-09-20T05:24:34;9.52;;;2.45;;
72301;SDS011;60235;52.234;5.186;2022-09-20T05:27:19;10.25;;;2.58;;
72301;SDS011;60235;52.234;5.186;2022-09-20T05:41:10;11.20;;;3.60;;
72301;SDS011;60235;52.234;5.186;2022-09-20T05:43:32;14.15;;;4.30;;
72301;SDS011;60235;52.234;5.186;2022-09-20T05:46:22;13.68;;;3.67;;
72301;SDS011;60235;52.234;5.186;2022-09-20T05:48:56;13.35;;;4.45;;
72301;SDS011;60235;52.234;5.186;2022-09-20T05:58:53;10.32;;;4.30;;
72301;SDS011;60235;52.234;5.186;2022-09-20T06:01:24;16.80;;;5.03;;
72301;SDS011;60235;52.234;5.186;2022-09-20T06:04:08;12.93;;;4.72;;
72301;SDS011;60235;52.234;5.186;2022-09-20T06:12:10;7.90;;;3.53;;
72301;SDS011;60235;52.234;5.186;2022-09-20T06:27:20;9.20;;;2.60;;
72301;SDS011;60235;52.234;5.186;2022-09-20T06:29:51;7.88;;;2.88;;
72301;SDS011;60235;52.234;5.186;2022-09-20T06:32:18;9.45;;;2.22;;
72301;SDS011;60235;52.234;5.186;2022-09-20T06:34:44;11.05;;;2.35;;
72301;SDS011;60235;52.234;5.186;2022-09-20T06:43:02;8.75;;;2.78;;
72301;SDS011;60235;52.234;5.186;2022-09-20T06:45:28;9.70;;;2.80;;
72301;SDS011;60235;52.234;5.186;2022-09-20T06:47:56;8.27;;;2.90;;
72301;SDS011;60235;52.234;5.186;2022-09-20T06:50:22;11.00;;;3.10;;
72301;SDS011;60235;52.234;5.186;2022-09-20T06:52:48;8.38;;;2.63;;
72301;SDS011;60235;52.234;5.186;2022-09-20T06:55:16;10.02;;;2.92;;
72301;SDS011;60235;52.234;5.186;2022-09-20T06:57:43;9.40;;;3.15;;
72301;SDS011;60235;52.234;5.186;2022-09-20T07:00:11;13.85;;;3.00;;
72301;SDS011;60235;52.234;5.186;2022-09-20T07:02:39;8.27;;;2.67;;
72301;SDS011;60235;52.234;5.186;2022-09-20T07:05:05;9.85;;;1.98;;
72301;SDS011;60235;52.234;5.186;2022-09-20T07:07:35;8.45;;;1.90;;
72301;SDS011;60235;52.234;5.186;2022-09-20T07:10:01;6.70;;;1.52;;
72301;SDS011;60235;52.234;5.186;2022-09-20T07:12:27;9.15;;;1.80;;
72301;SDS011;60235;52.234;5.186;2022-09-20T07:14:57;11.35;;;2.17;;
72301;SDS011;60235;52.234;5.186;2022-09-20T07:17:23;9.48;;;2.25;;
72301;SDS011;60235;52.234;5.186;2022-09-20T07:19:49;6.63;;;1.65;;
72301;SDS011;60235;52.234;5.186;2022-09-20T07:22:15;14.23;;;2.20;;
72301;SDS011;60235;52.234;5.186;2022-09-20T07:24:41;7.82;;;1.40;;
72301;SDS011;60235;52.234;5.186;2022-09-20T07:27:09;14.15;;;1.80;;
72301;SDS011;60235;52.234;5.186;2022-09-20T07:29:35;6.47;;;1.02;;
72301;SDS011;60235;52.234;5.186;2022-09-20T07:32:02;8.55;;;1.17;;
72301;SDS011;60235;52.234;5.186;2022-09-20T07:34:28;5.63;;;0.90;;
72301;SDS011;60235;52.234;5.186;2022-09-20T07:36:54;7.43;;;1.25;;
72301;SDS011;60235;52.234;5.186;2022-09-20T07:39:21;4.65;;;0.90;;
72301;SDS011;60235;52.234;5.186;2022-09-20T07:41:47;4.85;;;0.80;;
72301;SDS011;60235;52.234;5.186;2022-09-20T07:44:14;3.35;;;0.60;;
72301;SDS011;60235;52.234;5.186;2022-09-20T07:46:52;5.78;;;0.68;;
72301;SDS011;60235;52.234;5.186;2022-09-20T07:49:19;5.85;;;1.20;;
72301;SDS011;60235;52.234;5.186;2022-09-20T07:51:45;6.70;;;1.00;;
72301;SDS011;60235;52.234;5.186;2022-09-20T07:54:11;6.00;;;1.23;;
72301;SDS011;60235;52.234;5.186;2022-09-20T07:56:38;6.38;;;1.05;;
72301;SDS011;60235;52.234;5.186;2022-09-20T07:59:04;2.67;;;0.75;;
72301;SDS011;60235;52.234;5.186;2022-09-20T08:01:30;4.88;;;0.88;;
72301;SDS011;60235;52.234;5.186;2022-09-20T08:03:56;5.38;;;0.90;;
72301;SDS011;60235;52.234;5.186;2022-09-20T08:06:22;7.38;;;1.10;;
72301;SDS011;60235;52.234;5.186;2022-09-20T08:08:48;7.38;;;1.10;;
72301;SDS011;60235;52.234;5.186;2022-09-20T08:11:19;5.53;;;1.00;;
72301;SDS011;60235;52.234;5.186;2022-09-20T08:13:50;4.50;;;1.00;;
72301;SDS011;60235;52.234;5.186;2022-09-20T08:16:16;6.38;;;0.90;;
72301;SDS011;60235;52.234;5.186;2022-09-20T08:18:46;7.30;;;1.50;;
72301;SDS011;60235;52.234;5.186;2022-09-20T08:21:12;6.82;;;0.88;;
72301;SDS011;60235;52.234;5.186;2022-09-20T08:23:39;10.20;;;1.30;;
72301;SDS011;60235;52.234;5.186;2022-09-20T08:26:07;6.20;;;1.40;;
72301;SDS011;60235;52.234;5.186;2022-09-20T08:28:36;7.15;;;0.90;;
72301;SDS011;60235;52.234;5.186;2022-09-20T08:33:28;5.60;;;1.20;;
72301;SDS011;60235;52.234;5.186;2022-09-20T08:35:54;4.43;;;0.75;;
72301;SDS011;60235;52.234;5.186;2022-09-20T08:38:20;4.90;;;0.98;;
72301;SDS011;60235;52.234;5.186;2022-09-20T08:40:51;5.78;;;1.58;;
72301;SDS011;60235;52.234;5.186;2022-09-20T08:43:18;8.25;;;1.00;;
72301;SDS011;60235;52.234;5.186;2022-09-20T08:45:44;11.38;;;1.38;;
72301;SDS011;60235;52.234;5.186;2022-09-20T08:48:12;5.55;;;1.25;;
72301;SDS011;60235;52.234;5.186;2022-09-20T08:50:40;4.82;;;1.58;;
72301;SDS011;60235;52.234;5.186;2022-09-20T08:53:06;8.35;;;1.65;;
72301;SDS011;60235;52.234;5.186;2022-09-20T08:55:36;7.03;;;1.13;;
72301;SDS011;60235;52.234;5.186;2022-09-20T08:58:07;6.97;;;1.63;;
72301;SDS011;60235;52.234;5.186;2022-09-20T09:00:36;4.45;;;0.90;;
72301;SDS011;60235;52.234;5.186;2022-09-20T09:03:03;5.07;;;0.88;;
72301;SDS011;60235;52.234;5.186;2022-09-20T09:05:34;4.25;;;0.90;;
72301;SDS011;60235;52.234;5.186;2022-09-20T09:08:02;4.90;;;0.68;;
72301;SDS011;60235;52.234;5.186;2022-09-20T09:10:36;6.38;;;0.80;;
72301;SDS011;60235;52.234;5.186;2022-09-20T09:13:03;3.55;;;1.00;;
72301;SDS011;60235;52.234;5.186;2022-09-20T09:15:30;6.10;;;0.75;;
72301;SDS011;60235;52.234;5.186;2022-09-20T09:17:57;6.63;;;0.90;;
72301;SDS011;60235;52.234;5.186;2022-09-20T09:20:23;5.32;;;0.90;;
72301;SDS011;60235;52.234;5.186;2022-09-20T09:23:02;4.60;;;0.90;;
72301;SDS011;60235;52.234;5.186;2022-09-20T09:25:34;4.15;;;0.70;;
72301;SDS011;60235;52.234;5.186;2022-09-20T09:30:42;5.32;;;0.80;;
72301;SDS011;60235;52.234;5.186;2022-09-20T09:35:55;6.20;;;1.00;;
72301;SDS011;60235;52.234;5.186;2022-09-20T09:38:23;4.82;;;0.80;;
72301;SDS011;60235;52.234;5.186;2022-09-20T09:40:56;3.58;;;0.73;;
72301;SDS011;60235;52.234;5.186;2022-09-20T09:43:24;6.60;;;1.02;;
72301;SDS011;60235;52.234;5.186;2022-09-20T09:45:55;8.82;;;1.20;;
72301;SDS011;60235;52.234;5.186;2022-09-20T09:48:28;6.00;;;1.15;;
72301;SDS011;60235;52.234;5.186;2022-09-20T09:51:08;8.02;;;1.15;;
72301;SDS011;60235;52.234;5.186;2022-09-20T09:53:34;8.30;;;1.40;;
72301;SDS011;60235;52.234;5.186;2022-09-20T09:56:06;6.53;;;1.30;;
72301;SDS011;60235;52.234;5.186;2022-09-20T10:01:03;5.90;;;0.90;;
72301;SDS011;60235;52.234;5.186;2022-09-20T10:03:37;7.15;;;0.80;;
72301;SDS011;60235;52.234;5.186;2022-09-20T10:08:37;6.68;;;0.90;;
72301;SDS011;60235;52.234;5.186;2022-09-20T10:19:13;5.35;;;0.55;;
72301;SDS011;60235;52.234;5.186;2022-09-20T10:37:36;5.10;;;0.88;;
72301;SDS011;60235;52.234;5.186;2022-09-20T10:40:15;3.85;;;0.60;;
72301;SDS011;60235;52.234;5.186;2022-09-20T10:42:45;7.97;;;1.13;;
72301;SDS011;60235;52.234;5.186;2022-09-20T10:48:11;5.50;;;0.90;;
72301;SDS011;60235;52.234;5.186;2022-09-20T10:53:45;6.25;;;0.80;;
72301;SDS011;60235;52.234;5.186;2022-09-20T11:06:49;4.93;;;0.60;;
72301;SDS011;60235;52.234;5.186;2022-09-20T11:09:21;6.15;;;0.63;;
72301;SDS011;60235;52.234;5.186;2022-09-20T11:12:00;4.72;;;0.77;;
72301;SDS011;60235;52.234;5.186;2022-09-20T11:14:30;4.55;;;0.70;;
72301;SDS011;60235;52.234;5.186;2022-09-20T11:19:51;5.10;;;0.70;;
72301;SDS011;60235;52.234;5.186;2022-09-20T11:22:26;4.82;;;0.93;;
72301;SDS011;60235;52.234;5.186;2022-09-20T11:24:56;5.15;;;0.82;;
72301;SDS011;60235;52.234;5.186;2022-09-20T11:27:36;6.05;;;1.13;;
72301;SDS011;60235;52.234;5.186;2022-09-20T11:30:04;6.45;;;0.95;;
72301;SDS011;60235;52.234;5.186;2022-09-20T11:32:38;9.57;;;0.95;;
72301;SDS011;60235;52.234;5.186;2022-09-20T11:37:37;7.00;;;1.10;;
72301;SDS011;60235;52.234;5.186;2022-09-20T11:40:11;8.63;;;0.85;;
72301;SDS011;60235;52.234;5.186;2022-09-20T11:45:05;3.33;;;0.60;;
72301;SDS011;60235;52.234;5.186;2022-09-20T11:47:33;3.90;;;0.73;;
72301;SDS011;60235;52.234;5.186;2022-09-20T11:55:34;3.05;;;0.77;;
72301;SDS011;60235;52.234;5.186;2022-09-20T12:00:28;8.32;;;0.80;;
72301;SDS011;60235;52.234;5.186;2022-09-20T12:02:55;6.97;;;0.82;;
72301;SDS011;60235;52.234;5.186;2022-09-20T12:07:51;3.83;;;0.60;;
72301;SDS011;60235;52.234;5.186;2022-09-20T12:12:45;7.45;;;1.10;;
72301;SDS011;60235;52.234;5.186;2022-09-20T12:26:05;6.40;;;1.10;;
72301;SDS011;60235;52.234;5.186;2022-09-20T12:36:21;6.45;;;0.80;;
72301;SDS011;60235;52.234;5.186;2022-09-20T12:38:55;3.80;;;0.60;;
72301;SDS011;60235;52.234;5.186;2022-09-20T12:41:22;7.72;;;1.00;;
72301;SDS011;60235;52.234;5.186;2022-09-20T12:43:56;4.28;;;0.85;;
72301;SDS011;60235;52.234;5.186;2022-09-20T12:46:33;3.47;;;0.50;;
72301;SDS011;60235;52.234;5.186;2022-09-20T12:50:01;5.28;;;0.82;;
72301;SDS011;60235;52.234;5.186;2022-09-20T12:52:21;5.18;;;0.85;;
72301;SDS011;60235;52.234;5.186;2022-09-20T12:55:06;5.43;;;0.90;;
72301;SDS011;60235;52.234;5.186;2022-09-20T12:57:34;4.07;;;1.17;;
72301;SDS011;60235;52.234;5.186;2022-09-20T13:00:01;4.53;;;0.82;;
72301;SDS011;60235;52.234;5.186;2022-09-20T13:05:29;5.70;;;0.90;;
72301;SDS011;60235;52.234;5.186;2022-09-20T13:07:56;5.13;;;0.90;;
72301;SDS011;60235;52.234;5.186;2022-09-20T13:10:28;6.13;;;0.98;;
72301;SDS011;60235;52.234;5.186;2022-09-20T13:15:39;7.10;;;0.95;;
72301;SDS011;60235;52.234;5.186;2022-09-20T13:18:05;5.03;;;0.85;;
72301;SDS011;60235;52.234;5.186;2022-09-20T13:20:32;5.40;;;0.80;;
72301;SDS011;60235;52.234;5.186;2022-09-20T13:22:59;6.97;;;0.90;;
72301;SDS011;60235;52.234;5.186;2022-09-20T13:25:25;4.18;;;0.88;;
72301;SDS011;60235;52.234;5.186;2022-09-20T13:28:09;5.80;;;1.02;;
72301;SDS011;60235;52.234;5.186;2022-09-20T13:30:38;3.88;;;0.88;;
72301;SDS011;60235;52.234;5.186;2022-09-20T13:33:15;5.88;;;0.85;;
72301;SDS011;60235;52.234;5.186;2022-09-20T13:35:43;5.47;;;0.75;;
72301;SDS011;60235;52.234;5.186;2022-09-20T13:38:11;4.18;;;0.60;;
72301;SDS011;60235;52.234;5.186;2022-09-20T13:43:03;3.03;;;0.88;;
72301;SDS011;60235;52.234;5.186;2022-09-20T13:45:31;7.25;;;0.75;;
72301;SDS011;60235;52.234;5.186;2022-09-20T13:47:58;5.40;;;0.90;;
72301;SDS011;60235;52.234;5.186;2022-09-20T13:57:49;5.32;;;1.10;;
72301;SDS011;60235;52.234;5.186;2022-09-20T14:00:16;5.15;;;0.80;;
72301;SDS011;60235;52.234;5.186;2022-09-20T14:02:42;5.38;;;1.00;;
72301;SDS011;60235;52.234;5.186;2022-09-20T14:05:14;8.55;;;1.10;;
72301;SDS011;60235;52.234;5.186;2022-09-20T14:07:45;4.95;;;1.20;;
72301;SDS011;60235;52.234;5.186;2022-09-20T14:12:55;5.82;;;0.90;;
72301;SDS011;60235;52.234;5.186;2022-09-20T14:15:21;5.65;;;0.80;;
72301;SDS011;60235;52.234;5.186;2022-09-20T14:17:48;5.78;;;0.80;;
72301;SDS011;60235;52.234;5.186;2022-09-20T14:20:16;6.60;;;0.93;;
72301;SDS011;60235;52.234;5.186;2022-09-20T14:22:42;4.60;;;0.77;;
72301;SDS011;60235;52.234;5.186;2022-09-20T14:27:38;4.40;;;0.80;;
72301;SDS011;60235;52.234;5.186;2022-09-20T14:30:04;5.07;;;0.70;;
72301;SDS011;60235;52.234;5.186;2022-09-20T14:34:58;4.70;;;0.93;;
72301;SDS011;60235;52.234;5.186;2022-09-20T14:37:26;5.93;;;1.00;;
72301;SDS011;60235;52.234;5.186;2022-09-20T14:39:57;8.80;;;1.10;;
72301;SDS011;60235;52.234;5.186;2022-09-20T14:42:33;4.95;;;1.20;;
72301;SDS011;60235;52.234;5.186;2022-09-20T14:45:00;8.82;;;1.25;;
72301;SDS011;60235;52.234;5.186;2022-09-20T14:47:37;6.25;;;0.85;;
72301;SDS011;60235;52.234;5.186;2022-09-20T14:50:18;6.35;;;1.00;;
72301;SDS011;60235;52.234;5.186;2022-09-20T14:52:49;9.35;;;1.00;;
72301;SDS011;60235;52.234;5.186;2022-09-20T14:55:23;8.35;;;1.10;;
72301;SDS011;60235;52.234;5.186;2022-09-20T14:57:52;7.57;;;0.85;;
72301;SDS011;60235;52.234;5.186;2022-09-20T15:00:20;7.00;;;1.60;;
72301;SDS011;60235;52.234;5.186;2022-09-20T15:02:46;7.15;;;2.10;;
72301;SDS011;60235;52.234;5.186;2022-09-20T15:05:16;6.35;;;1.10;;
72301;SDS011;60235;52.234;5.186;2022-09-20T15:07:43;7.38;;;1.10;;
72301;SDS011;60235;52.234;5.186;2022-09-20T15:10:12;4.55;;;0.90;;
72301;SDS011;60235;52.234;5.186;2022-09-20T15:12:39;5.63;;;0.80;;
72301;SDS011;60235;52.234;5.186;2022-09-20T15:15:07;6.55;;;1.10;;
72301;SDS011;60235;52.234;5.186;2022-09-20T15:17:38;4.30;;;0.90;;
72301;SDS011;60235;52.234;5.186;2022-09-20T15:20:04;8.15;;;1.23;;
72301;SDS011;60235;52.234;5.186;2022-09-20T15:22:30;6.68;;;0.90;;
72301;SDS011;60235;52.234;5.186;2022-09-20T15:24:57;4.43;;;0.80;;
72301;SDS011;60235;52.234;5.186;2022-09-20T15:27:23;8.70;;;1.15;;
72301;SDS011;60235;52.234;5.186;2022-09-20T15:29:49;6.82;;;1.08;;
72301;SDS011;60235;52.234;5.186;2022-09-20T15:32:15;5.28;;;1.38;;
72301;SDS011;60235;52.234;5.186;2022-09-20T15:34:41;8.68;;;1.10;;
72301;SDS011;60235;52.234;5.186;2022-09-20T15:37:07;5.07;;;1.17;;
72301;SDS011;60235;52.234;5.186;2022-09-20T15:39:33;5.28;;;1.17;;
72301;SDS011;60235;52.234;5.186;2022-09-20T15:41:59;4.85;;;0.85;;
72301;SDS011;60235;52.234;5.186;2022-09-20T15:44:26;7.57;;;1.20;;
72301;SDS011;60235;52.234;5.186;2022-09-20T15:46:52;6.65;;;1.17;;
72301;SDS011;60235;52.234;5.186;2022-09-20T15:49:19;7.00;;;0.98;;
72301;SDS011;60235;52.234;5.186;2022-09-20T15:51:46;3.60;;;0.80;;
72301;SDS011;60235;52.234;5.186;2022-09-20T15:54:12;5.57;;;1.17;;
72301;SDS011;60235;52.234;5.186;2022-09-20T15:56:39;5.45;;;0.82;;
72301;SDS011;60235;52.234;5.186;2022-09-20T15:59:06;2.88;;;0.80;;
72301;SDS011;60235;52.234;5.186;2022-09-20T16:01:33;4.18;;;1.10;;
72301;SDS011;60235;52.234;5.186;2022-09-20T16:04:14;4.90;;;1.13;;
72301;SDS011;60235;52.234;5.186;2022-09-20T16:06:42;6.50;;;1.63;;
72301;SDS011;60235;52.234;5.186;2022-09-20T16:09:08;4.72;;;1.15;;
72301;SDS011;60235;52.234;5.186;2022-09-20T16:11:34;7.70;;;1.20;;
72301;SDS011;60235;52.234;5.186;2022-09-20T16:14:01;4.97;;;1.23;;
72301;SDS011;60235;52.234;5.186;2022-09-20T16:16:28;9.48;;;1.48;;
72301;SDS011;60235;52.234;5.186;2022-09-20T16:18:54;6.25;;;1.20;;
72301;SDS011;60235;52.234;5.186;2022-09-20T16:21:39;5.28;;;0.80;;
72301;SDS011;60235;52.234;5.186;2022-09-20T16:24:06;7.47;;;0.80;;
72301;SDS011;60235;52.234;5.186;2022-09-20T16:26:33;8.95;;;1.00;;
72301;SDS011;60235;52.234;5.186;2022-09-20T16:28:59;7.13;;;0.88;;
72301;SDS011;60235;52.234;5.186;2022-09-20T16:31:36;4.70;;;0.80;;
72301;SDS011;60235;52.234;5.186;2022-09-20T16:34:18;4.82;;;1.10;;
72301;SDS011;60235;52.234;5.186;2022-09-20T16:36:45;7.13;;;1.25;;
72301;SDS011;60235;52.234;5.186;2022-09-20T16:39:11;7.45;;;1.40;;
72301;SDS011;60235;52.234;5.186;2022-09-20T16:41:37;7.10;;;1.10;;
72301;SDS011;60235;52.234;5.186;2022-09-20T16:44:04;6.80;;;1.05;;
72301;SDS011;60235;52.234;5.186;2022-09-20T16:46:31;6.78;;;0.85;;
72301;SDS011;60235;52.234;5.186;2022-09-20T16:49:01;6.45;;;0.95;;
72301;SDS011;60235;52.234;5.186;2022-09-20T16:51:28;6.07;;;0.82;;
72301;SDS011;60235;52.234;5.186;2022-09-20T16:53:59;6.35;;;1.02;;
72301;SDS011;60235;52.234;5.186;2022-09-20T16:56:26;7.38;;;1.52;;
72301;SDS011;60235;52.234;5.186;2022-09-20T16:58:53;11.02;;;1.40;;
72301;SDS011;60235;52.234;5.186;2022-09-20T17:01:19;8.40;;;1.40;;
72301;SDS011;60235;52.234;5.186;2022-09-20T17:03:46;10.70;;;1.50;;
72301;SDS011;60235;52.234;5.186;2022-09-20T17:06:12;5.10;;;1.00;;
72301;SDS011;60235;52.234;5.186;2022-09-20T17:08:39;5.88;;;1.33;;
72301;SDS011;60235;52.234;5.186;2022-09-20T17:11:06;8.82;;;1.98;;
72301;SDS011;60235;52.234;5.186;2022-09-20T17:13:33;9.35;;;2.00;;
72301;SDS011;60235;52.234;5.186;2022-09-20T17:16:03;9.68;;;2.38;;
72301;SDS011;60235;52.234;5.186;2022-09-20T17:18:29;10.27;;;1.73;;
72301;SDS011;60235;52.234;5.186;2022-09-20T17:20:59;8.38;;;1.75;;
72301;SDS011;60235;52.234;5.186;2022-09-20T17:23:27;9.68;;;1.73;;
72301;SDS011;60235;52.234;5.186;2022-09-20T17:26:03;5.95;;;1.35;;
72301;SDS011;60235;52.234;5.186;2022-09-20T17:28:34;6.00;;;1.45;;
72301;SDS011;60235;52.234;5.186;2022-09-20T17:31:00;8.85;;;1.98;;
72301;SDS011;60235;52.234;5.186;2022-09-20T17:33:26;6.65;;;1.95;;
72301;SDS011;60235;52.234;5.186;2022-09-20T17:35:55;9.63;;;2.13;;
72301;SDS011;60235;52.234;5.186;2022-09-20T17:40:57;10.15;;;1.77;;
72301;SDS011;60235;52.234;5.186;2022-09-20T17:43:24;10.75;;;1.92;;
72301;SDS011;60235;52.234;5.186;2022-09-20T17:45:51;7.25;;;1.88;;
72301;SDS011;60235;52.234;5.186;2022-09-20T17:48:17;9.02;;;2.10;;
72301;SDS011;60235;52.234;5.186;2022-09-20T17:50:52;9.30;;;2.72;;
72301;SDS011;60235;52.234;5.186;2022-09-20T17:53:18;8.85;;;2.70;;
72301;SDS011;60235;52.234;5.186;2022-09-20T17:55:51;10.48;;;2.13;;
72301;SDS011;60235;52.234;5.186;2022-09-20T17:58:17;9.50;;;2.13;;
72301;SDS011;60235;52.234;5.186;2022-09-20T18:00:44;9.20;;;2.30;;
72301;SDS011;60235;52.234;5.186;2022-09-20T18:03:10;9.13;;;2.47;;
72301;SDS011;60235;52.234;5.186;2022-09-20T18:05:36;8.05;;;2.47;;
72301;SDS011;60235;52.234;5.186;2022-09-20T18:08:02;9.13;;;2.30;;
72301;SDS011;60235;52.234;5.186;2022-09-20T18:10:28;8.27;;;2.33;;
72301;SDS011;60235;52.234;5.186;2022-09-20T18:12:54;9.25;;;3.40;;
72301;SDS011;60235;52.234;5.186;2022-09-20T18:15:20;9.80;;;3.55;;
72301;SDS011;60235;52.234;5.186;2022-09-20T18:17:47;10.70;;;3.10;;
72301;SDS011;60235;52.234;5.186;2022-09-20T18:20:13;9.20;;;2.95;;
72301;SDS011;60235;52.234;5.186;2022-09-20T18:22:39;9.43;;;3.03;;
72301;SDS011;60235;52.234;5.186;2022-09-20T18:25:05;9.35;;;3.53;;
72301;SDS011;60235;52.234;5.186;2022-09-20T18:27:31;10.68;;;3.70;;
72301;SDS011;60235;52.234;5.186;2022-09-20T18:29:58;11.85;;;3.70;;
72301;SDS011;60235;52.234;5.186;2022-09-20T18:32:24;10.50;;;3.95;;
72301;SDS011;60235;52.234;5.186;2022-09-20T18:37:19;13.00;;;3.67;;
72301;SDS011;60235;52.234;5.186;2022-09-20T18:39:45;9.82;;;3.13;;
72301;SDS011;60235;52.234;5.186;2022-09-20T18:42:13;10.15;;;3.95;;
72301;SDS011;60235;52.234;5.186;2022-09-20T18:44:39;11.93;;;3.90;;
72301;SDS011;60235;52.234;5.186;2022-09-20T18:49:34;10.65;;;3.50;;
72301;SDS011;60235;52.234;5.186;2022-09-20T18:52:00;9.35;;;3.03;;
72301;SDS011;60235;52.234;5.186;2022-09-20T18:54:26;9.93;;;3.50;;
72301;SDS011;60235;52.234;5.186;2022-09-20T18:56:57;8.63;;;3.40;;
72301;SDS011;60235;52.234;5.186;2022-09-20T18:59:25;12.98;;;3.50;;
72301;SDS011;60235;52.234;5.186;2022-09-20T19:07:01;9.40;;;3.70;;
72301;SDS011;60235;52.234;5.186;2022-09-20T19:09:42;19.42;;;4.78;;
72301;SDS011;60235;52.234;5.186;2022-09-20T19:17:36;10.75;;;5.38;;
72301;SDS011;60235;52.234;5.186;2022-09-20T19:20:11;14.43;;;5.90;;
72301;SDS011;60235;52.234;5.186;2022-09-20T19:22:45;13.18;;;5.50;;
72301;SDS011;60235;52.234;5.186;2022-09-20T19:27:44;11.88;;;5.10;;
72301;SDS011;60235;52.234;5.186;2022-09-20T19:30:12;13.15;;;5.35;;
72301;SDS011;60235;52.234;5.186;2022-09-20T19:32:38;10.60;;;4.28;;
72301;SDS011;60235;52.234;5.186;2022-09-20T19:35:04;11.32;;;4.50;;
72301;SDS011;60235;52.234;5.186;2022-09-20T19:40:09;9.70;;;4.28;;
72301;SDS011;60235;52.234;5.186;2022-09-20T19:45:28;9.20;;;3.42;;
72301;SDS011;60235;52.234;5.186;2022-09-20T19:50:44;8.88;;;3.60;;
72301;SDS011;60235;52.234;5.186;2022-09-20T19:53:11;12.88;;;3.65;;
72301;SDS011;60235;52.234;5.186;2022-09-20T19:55:38;12.40;;;4.03;;
72301;SDS011;60235;52.234;5.186;2022-09-20T19:58:08;8.85;;;3.95;;
72301;SDS011;60235;52.234;5.186;2022-09-20T20:00:34;10.45;;;3.53;;
72301;SDS011;60235;52.234;5.186;2022-09-20T20:03:00;8.10;;;3.33;;
72301;SDS011;60235;52.234;5.186;2022-09-20T20:05:26;12.45;;;3.85;;
72301;SDS011;60235;52.234;5.186;2022-09-20T20:16:01;10.40;;;3.08;;
72301;SDS011;60235;52.234;5.186;2022-09-20T20:20:57;9.73;;;3.40;;
72301;SDS011;60235;52.234;5.186;2022-09-20T20:28:27;10.52;;;3.25;;
72301;SDS011;60235;52.234;5.186;2022-09-20T20:30:54;12.52;;;3.15;;
72301;SDS011;60235;52.234;5.186;2022-09-20T20:33:20;7.43;;;2.90;;
72301;SDS011;60235;52.234;5.186;2022-09-20T20:35:59;11.63;;;2.75;;
72301;SDS011;60235;52.234;5.186;2022-09-20T20:38:25;7.82;;;2.78;;
72301;SDS011;60235;52.234;5.186;2022-09-20T20:40:58;9.05;;;3.28;;
72301;SDS011;60235;52.234;5.186;2022-09-20T20:43:28;10.75;;;2.90;;
72301;SDS011;60235;52.234;5.186;2022-09-20T20:45:54;10.85;;;3.20;;